Bijie, China
Current Conditions -  °F | °C
As of 3:00 AM on Monday 24 Nov 2014 (Local Time) from ZUGY Reporting Station
Light Rain Light Rain  
Wind Chill: 52°   Ceiling: 1200
Heat Index: 52°   Visibility: 1.8mi
Dew Point: 50°   Wind: 7mph
Humidity: 94%   Direction: 340°NNW
Pressure: 30.06"   Gusts: NA
Location:  27.31°N, 105.28°E
Report Text: ZUGY 231900Z 34003MPS 310V010 3000 -RA BR SCT005BKN012OVC026 11/10 Q1018 NOSIG
Loading
Personal Weather Stations






























Interactive Weather Map New forecast layout! Learn more

10-Day Weather Forecast

Advertisements
Track Severe Weather on mobile